createdAt,value
2018-10-06T00:00:23.209Z,13.83
2018-10-06T00:02:52.214Z,13.88
2018-10-06T00:05:21.345Z,13.85
2018-10-06T00:07:50.372Z,13.66
2018-10-06T00:10:19.326Z,13.69
2018-10-06T00:12:48.293Z,13.53
2018-10-06T00:15:17.604Z,13.47
2018-10-06T00:17:46.618Z,13.52
2018-10-06T00:20:15.537Z,13.54
2018-10-06T00:22:44.595Z,13.35
2018-10-06T00:25:13.646Z,13.47
2018-10-06T00:27:43.330Z,13.21
2018-10-06T00:30:12.605Z,12.90
2018-10-06T00:32:41.500Z,12.73
2018-10-06T00:35:10.414Z,12.66
2018-10-06T00:37:39.343Z,12.55
2018-10-06T00:40:08.475Z,12.81
2018-10-06T00:42:37.355Z,13.05
2018-10-06T00:45:07.260Z,13.01
2018-10-06T00:47:36.175Z,13.03
2018-10-06T00:50:05.084Z,13.11
2018-10-06T00:52:34.415Z,12.77
2018-10-06T00:55:03.736Z,12.71
2018-10-06T00:57:33.067Z,13.21
2018-10-06T01:00:02.460Z,12.96
2018-10-06T01:02:31.385Z,12.85
2018-10-06T01:05:00.424Z,12.83
2018-10-06T01:07:29.594Z,12.87
2018-10-06T01:09:58.866Z,12.99
2018-10-06T01:12:28.499Z,12.74
2018-10-06T01:14:57.921Z,12.69
2018-10-06T01:17:26.774Z,12.62
2018-10-06T01:19:56.027Z,12.65
2018-10-06T01:22:25.190Z,12.61
2018-10-06T01:24:54.383Z,12.69
2018-10-06T01:27:23.710Z,12.71
2018-10-06T01:29:52.684Z,12.82
2018-10-06T01:32:22.041Z,12.68
2018-10-06T01:34:51.027Z,12.72
2018-10-06T01:37:20.244Z,12.60
2018-10-06T01:39:49.199Z,12.38
2018-10-06T01:42:18.367Z,12.41
2018-10-06T01:44:47.617Z,12.52
2018-10-06T01:47:16.648Z,12.52
2018-10-06T01:49:45.552Z,12.55
2018-10-06T01:52:14.937Z,12.62
2018-10-06T01:54:44.198Z,12.72
2018-10-06T01:57:13.148Z,12.74
2018-10-06T01:59:42.438Z,12.75
2018-10-06T02:02:11.387Z,12.87
2018-10-06T02:04:40.343Z,12.91
2018-10-06T02:07:09.299Z,13.01
2018-10-06T02:09:38.142Z,13.16
2018-10-06T02:12:07.504Z,13.20
2018-10-06T02:14:36.626Z,13.05
2018-10-06T02:17:05.617Z,13.09
2018-10-06T02:19:34.507Z,13.07
2018-10-06T02:22:03.927Z,12.90
2018-10-06T02:24:33.255Z,12.94
2018-10-06T02:27:02.215Z,12.71
2018-10-06T02:29:31.548Z,12.72
2018-10-06T02:32:00.606Z,12.64
2018-10-06T02:34:29.452Z,12.47
2018-10-06T02:36:58.507Z,12.40
2018-10-06T02:39:27.284Z,12.56
2018-10-06T02:41:56.163Z,12.55
2018-10-06T02:44:25.480Z,12.51
2018-10-06T02:46:54.471Z,12.59
2018-10-06T02:49:23.301Z,12.51
2018-10-06T02:51:52.508Z,12.58
2018-10-06T02:54:21.807Z,12.49
2018-10-06T02:56:50.877Z,12.49
2018-10-06T02:59:19.972Z,12.39
2018-10-06T03:01:48.896Z,12.53
2018-10-06T03:04:17.767Z,12.45
2018-10-06T03:06:47.019Z,12.59
2018-10-06T03:09:15.950Z,12.69
2018-10-06T03:11:56.761Z,12.66
2018-10-06T03:14:25.938Z,12.88
2018-10-06T03:16:55.173Z,12.67
2018-10-06T03:19:24.572Z,12.61
2018-10-06T03:21:53.464Z,12.71
2018-10-06T03:24:22.358Z,12.70
2018-10-06T03:26:51.579Z,12.83
2018-10-06T03:29:20.586Z,12.81
2018-10-06T03:31:49.460Z,12.92
2018-10-06T03:34:18.386Z,12.74
2018-10-06T03:36:47.462Z,12.77
2018-10-06T03:39:16.466Z,12.73
2018-10-06T03:41:45.735Z,12.72
2018-10-06T03:44:14.602Z,12.55
2018-10-06T03:46:43.556Z,12.30
2018-10-06T03:49:12.549Z,12.18
2018-10-06T03:51:41.518Z,12.16
2018-10-06T03:54:12.242Z,12.07
2018-10-06T03:56:43.093Z,12.19
2018-10-06T03:59:12.121Z,12.25
2018-10-06T04:01:41.008Z,12.43
2018-10-06T04:04:10.323Z,12.56
2018-10-06T04:06:39.247Z,12.79
2018-10-06T04:09:09.237Z,12.67
2018-10-06T04:11:38.365Z,12.60
2018-10-06T04:14:07.867Z,12.62
2018-10-06T04:16:36.815Z,12.67
2018-10-06T04:19:06.141Z,12.67
2018-10-06T04:21:51.363Z,12.73
2018-10-06T04:24:20.276Z,12.68
2018-10-06T04:26:49.266Z,12.58
2018-10-06T04:29:18.167Z,12.65
2018-10-06T04:31:47.399Z,12.36
2018-10-06T04:34:16.330Z,12.14
2018-10-06T04:36:45.254Z,12.04
2018-10-06T04:39:14.420Z,11.93
2018-10-06T04:41:43.332Z,12.00
2018-10-06T04:44:12.330Z,12.13
2018-10-06T04:46:41.342Z,12.15
2018-10-06T04:49:10.282Z,12.36
2018-10-06T04:51:39.206Z,12.68
2018-10-06T04:54:09.554Z,12.59
2018-10-06T04:56:38.476Z,12.32
2018-10-06T04:59:07.407Z,12.39
2018-10-06T05:01:36.289Z,12.19
2018-10-06T05:04:05.262Z,11.94
2018-10-06T05:06:34.100Z,11.82
2018-10-06T05:09:03.350Z,11.84
2018-10-06T05:11:32.420Z,11.84
2018-10-06T05:14:01.341Z,11.69
2018-10-06T05:16:30.360Z,11.89
2018-10-06T05:18:59.374Z,11.68
2018-10-06T05:21:28.339Z,11.68
2018-10-06T05:23:58.099Z,11.70
2018-10-06T05:26:26.984Z,11.63
2018-10-06T05:28:55.958Z,11.69
2018-10-06T05:31:24.913Z,11.83
2018-10-06T05:33:53.820Z,11.66
2018-10-06T05:36:22.682Z,11.73
2018-10-06T05:38:51.853Z,11.74
2018-10-06T05:41:20.752Z,11.78
2018-10-06T05:43:49.641Z,11.88
2018-10-06T05:46:18.672Z,12.15
2018-10-06T05:48:48.487Z,12.03
2018-10-06T05:51:17.374Z,11.97
2018-10-06T05:53:46.778Z,11.89
2018-10-06T05:56:15.766Z,11.94
2018-10-06T05:58:44.701Z,12.41
2018-10-06T06:01:13.741Z,12.34
2018-10-06T06:03:42.775Z,12.19
2018-10-06T06:06:12.045Z,12.30
2018-10-06T06:08:41.348Z,12.41
2018-10-06T06:11:10.241Z,12.04
2018-10-06T06:13:39.107Z,12.41
2018-10-06T06:16:09.475Z,12.07
2018-10-06T06:18:38.436Z,12.32
2018-10-06T06:21:07.499Z,12.52
2018-10-06T06:23:36.666Z,12.80
2018-10-06T06:26:05.549Z,12.97
2018-10-06T06:28:34.395Z,12.99
2018-10-06T06:31:03.325Z,13.17
2018-10-06T06:33:32.874Z,13.26
2018-10-06T06:36:01.795Z,13.10
2018-10-06T06:38:31.192Z,13.28
2018-10-06T06:41:01.010Z,13.50
2018-10-06T06:43:29.897Z,13.51
2018-10-06T06:45:59.182Z,13.10
2018-10-06T06:48:28.532Z,13.83
2018-10-06T06:50:57.438Z,14.12
2018-10-06T06:53:26.437Z,13.77
2018-10-06T06:55:55.269Z,14.29
2018-10-06T06:58:24.248Z,14.21
2018-10-06T07:00:53.212Z,14.03
2018-10-06T07:03:22.346Z,14.24
2018-10-06T07:05:51.258Z,13.99
2018-10-06T07:08:20.243Z,14.29
2018-10-06T07:10:50.139Z,14.42
2018-10-06T07:13:19.094Z,14.61
2018-10-06T07:15:48.184Z,14.73
2018-10-06T07:18:17.133Z,15.50
2018-10-06T07:20:46.037Z,15.41
2018-10-06T07:23:14.976Z,14.97
2018-10-06T07:25:43.820Z,15.02
2018-10-06T07:28:12.737Z,14.83
2018-10-06T07:30:41.641Z,15.07
2018-10-06T07:33:10.555Z,14.87
2018-10-06T07:35:39.535Z,15.44
2018-10-06T07:38:08.626Z,15.28
2018-10-06T07:40:37.578Z,15.24
2018-10-06T07:43:06.702Z,15.30
2018-10-06T07:45:35.591Z,15.67
2018-10-06T07:48:04.516Z,15.44
2018-10-06T07:50:33.358Z,15.64
2018-10-06T07:53:02.523Z,15.78
2018-10-06T07:55:31.452Z,16.11
2018-10-06T07:58:00.475Z,16.05
2018-10-06T08:00:29.694Z,16.15
2018-10-06T08:02:58.511Z,16.37
2018-10-06T08:05:27.359Z,16.77
2018-10-06T08:07:56.494Z,16.72
2018-10-06T08:10:25.388Z,16.41
2018-10-06T08:12:54.289Z,16.41
2018-10-06T08:15:23.165Z,16.73
2018-10-06T08:17:51.994Z,16.93
2018-10-06T08:20:20.892Z,17.07
2018-10-06T08:22:50.192Z,17.40
2018-10-06T08:25:19.116Z,17.00
2018-10-06T08:27:47.999Z,17.52
2018-10-06T08:30:16.863Z,17.62
2018-10-06T08:32:45.785Z,17.85
2018-10-06T08:35:14.691Z,17.64
2018-10-06T08:37:43.695Z,17.17
2018-10-06T08:40:12.698Z,17.83
2018-10-06T08:42:41.601Z,17.99
2018-10-06T08:45:10.994Z,17.83
2018-10-06T08:47:39.866Z,18.31
2018-10-06T08:50:08.907Z,18.14
2018-10-06T08:52:38.182Z,18.01
2018-10-06T08:55:07.532Z,18.06
2018-10-06T08:57:36.523Z,18.05
2018-10-06T09:00:05.631Z,18.14
2018-10-06T09:02:34.657Z,18.56
2018-10-06T09:05:03.569Z,18.72
2018-10-06T09:07:32.794Z,18.82
2018-10-06T09:10:01.822Z,19.58
2018-10-06T09:12:30.709Z,19.51
2018-10-06T09:15:00.389Z,19.05
2018-10-06T09:17:29.197Z,19.78
2018-10-06T09:19:58.081Z,19.22
2018-10-06T09:22:27.204Z,19.13
2018-10-06T09:24:56.017Z,19.32
2018-10-06T09:27:25.011Z,19.99
2018-10-06T09:29:53.996Z,19.78
2018-10-06T09:32:22.947Z,19.74
2018-10-06T09:34:51.789Z,19.79
2018-10-06T09:37:21.011Z,20.22
2018-10-06T09:39:49.828Z,20.56
2018-10-06T09:42:18.888Z,20.10
2018-10-06T09:44:47.912Z,20.27
2018-10-06T09:47:16.777Z,20.97
2018-10-06T09:49:46.068Z,20.67
2018-10-06T09:52:15.336Z,20.71
2018-10-06T09:54:45.160Z,20.51
2018-10-06T09:57:14.108Z,20.11
2018-10-06T09:59:43.006Z,20.04
2018-10-06T10:03:18.496Z,20.26
2018-10-06T10:05:54.757Z,20.58
2018-10-06T10:08:23.578Z,20.78
2018-10-06T10:10:52.444Z,20.75
2018-10-06T10:13:21.599Z,20.53
2018-10-06T10:15:50.455Z,20.71
2018-10-06T10:18:19.634Z,20.37
2018-10-06T10:20:48.491Z,20.51
2018-10-06T10:23:17.388Z,21.12
2018-10-06T10:25:46.307Z,21.17
2018-10-06T10:28:15.212Z,21.69
2018-10-06T10:30:44.088Z,21.82
2018-10-06T10:33:13.195Z,21.13
2018-10-06T10:35:42.575Z,21.25
2018-10-06T10:38:11.546Z,21.04
2018-10-06T10:40:40.503Z,20.58
2018-10-06T10:43:09.693Z,21.11
2018-10-06T10:45:39.619Z,21.08
2018-10-06T10:48:08.517Z,21.22
2018-10-06T10:50:37.896Z,21.76
2018-10-06T10:53:07.568Z,21.61
2018-10-06T10:55:37.638Z,21.50
2018-10-06T10:58:06.910Z,21.70
2018-10-06T11:00:35.862Z,21.71
2018-10-06T11:03:04.685Z,21.60
2018-10-06T11:05:34.093Z,21.77
2018-10-06T11:08:02.996Z,22.21
2018-10-06T11:10:31.833Z,22.99
2018-10-06T11:13:00.998Z,21.80
2018-10-06T11:15:29.963Z,21.93
2018-10-06T11:17:58.766Z,21.57
2018-10-06T11:20:27.992Z,21.42
2018-10-06T11:22:56.902Z,21.68
2018-10-06T11:25:25.739Z,21.82
2018-10-06T11:27:54.909Z,21.55
2018-10-06T11:30:23.744Z,21.38
2018-10-06T11:32:52.524Z,22.43
2018-10-06T11:35:21.428Z,23.10
2018-10-06T11:37:50.412Z,23.51
2018-10-06T11:40:19.244Z,23.14
2018-10-06T11:42:48.123Z,22.83
2018-10-06T11:45:16.968Z,22.44
2018-10-06T11:47:45.804Z,22.17
2018-10-06T11:50:15.098Z,22.14
2018-10-06T11:52:44.401Z,21.79
2018-10-06T11:55:13.265Z,22.00
2018-10-06T11:57:42.433Z,22.39
2018-10-06T12:00:11.447Z,22.42
2018-10-06T12:02:40.171Z,22.36
2018-10-06T12:05:09.964Z,22.09
2018-10-06T12:07:39.251Z,22.48
2018-10-06T12:10:08.897Z,22.61
2018-10-06T12:12:37.784Z,22.88
2018-10-06T12:15:06.981Z,23.15
2018-10-06T12:17:35.767Z,22.72
2018-10-06T12:20:04.705Z,22.09
2018-10-06T12:22:33.558Z,22.23
2018-10-06T12:25:02.368Z,22.66
2018-10-06T12:27:32.771Z,22.60
2018-10-06T12:30:01.573Z,22.92
2018-10-06T12:32:30.696Z,22.45
2018-10-06T12:34:59.571Z,22.42
2018-10-06T12:37:28.381Z,21.76
2018-10-06T12:39:57.157Z,22.95
2018-10-06T12:42:26.315Z,22.98
2018-10-06T12:44:56.070Z,22.86
2018-10-06T12:47:24.875Z,22.87
2018-10-06T12:49:54.031Z,22.77
2018-10-06T12:52:22.899Z,22.64
2018-10-06T12:54:51.720Z,23.07
2018-10-06T12:57:21.448Z,22.67
2018-10-06T12:59:50.222Z,23.09
2018-10-06T13:02:19.037Z,22.51
2018-10-06T13:04:47.922Z,22.53
2018-10-06T13:07:16.784Z,22.44
2018-10-06T13:09:45.562Z,22.64
2018-10-06T13:12:14.448Z,22.79
2018-10-06T13:14:43.409Z,22.89
2018-10-06T13:17:12.199Z,23.02
2018-10-06T13:19:41.094Z,22.94
2018-10-06T13:22:09.955Z,22.87
2018-10-06T13:24:38.808Z,22.76
2018-10-06T13:27:07.895Z,22.37
2018-10-06T13:29:36.806Z,22.15
2018-10-06T13:32:05.730Z,22.29
2018-10-06T13:34:34.887Z,22.37
2018-10-06T13:37:03.812Z,22.52
2018-10-06T13:39:32.698Z,22.85
2018-10-06T13:42:01.557Z,22.99
2018-10-06T13:44:30.418Z,23.02
2018-10-06T13:46:59.279Z,22.81
2018-10-06T13:49:28.440Z,22.23
2018-10-06T13:51:57.700Z,22.10
2018-10-06T13:54:26.568Z,22.38
2018-10-06T13:56:55.578Z,22.52
2018-10-06T13:59:24.352Z,22.25
2018-10-06T14:01:53.166Z,21.82
2018-10-06T14:04:22.009Z,22.22
2018-10-06T14:06:50.910Z,21.70
2018-10-06T14:09:19.770Z,21.61
2018-10-06T14:11:48.648Z,22.14
2018-10-06T14:14:17.868Z,22.55
2018-10-06T14:16:46.737Z,23.03
2018-10-06T14:19:15.905Z,22.37
2018-10-06T14:21:45.130Z,22.14
2018-10-06T14:24:14.660Z,21.82
2018-10-06T14:26:43.549Z,21.47
2018-10-06T14:29:12.380Z,21.56
2018-10-06T14:31:41.249Z,21.32
2018-10-06T14:34:10.184Z,21.68
2018-10-06T14:36:39.063Z,21.91
2018-10-06T14:39:09.771Z,21.89
2018-10-06T14:41:38.741Z,21.89
2018-10-06T14:44:07.825Z,21.84
2018-10-06T14:46:36.659Z,21.09
2018-10-06T14:49:05.631Z,20.96
2018-10-06T14:51:34.744Z,21.06
2018-10-06T14:54:03.477Z,20.75
2018-10-06T14:56:32.288Z,21.36
2018-10-06T14:59:01.081Z,21.86
2018-10-06T15:01:29.911Z,21.59
2018-10-06T15:03:59.080Z,22.03
2018-10-06T15:06:28.564Z,22.31
2018-10-06T15:08:57.447Z,21.96
2018-10-06T15:11:26.516Z,21.69
2018-10-06T15:13:55.310Z,21.57
2018-10-06T15:16:24.429Z,20.85
2018-10-06T15:18:53.863Z,20.58
2018-10-06T15:21:22.768Z,20.60
2018-10-06T15:23:51.536Z,20.57
2018-10-06T15:26:20.429Z,20.62
2018-10-06T15:28:49.248Z,20.48
2018-10-06T15:31:18.487Z,20.29
2018-10-06T15:33:47.660Z,20.27
2018-10-06T15:36:16.484Z,20.12
2018-10-06T15:38:45.301Z,20.02
2018-10-06T15:41:14.447Z,19.94
2018-10-06T15:43:43.278Z,19.88
2018-10-06T15:46:12.114Z,19.78
2018-10-06T15:48:41.650Z,19.75
2018-10-06T15:51:10.611Z,19.62
2018-10-06T15:53:39.331Z,19.58
2018-10-06T15:56:08.193Z,19.44
2018-10-06T15:58:37.010Z,19.38
2018-10-06T16:01:06.258Z,19.41
2018-10-06T16:03:36.734Z,19.41
2018-10-06T16:06:06.477Z,19.39
2018-10-06T16:08:35.469Z,19.37
2018-10-06T16:11:04.665Z,19.28
2018-10-06T16:13:33.496Z,19.22
2018-10-06T16:16:02.323Z,19.19
2018-10-06T16:18:31.220Z,19.14
2018-10-06T16:20:59.985Z,19.06
2018-10-06T16:23:28.805Z,19.03
2018-10-06T16:25:57.670Z,19.01
2018-10-06T16:28:26.530Z,19.10
2018-10-06T16:30:55.349Z,18.99
2018-10-06T16:33:24.731Z,18.90
2018-10-06T16:35:53.748Z,18.88
2018-10-06T16:38:22.781Z,18.81
2018-10-06T16:40:52.008Z,18.78
2018-10-06T16:43:20.848Z,18.74
2018-10-06T16:45:50.539Z,18.71
2018-10-06T16:48:19.739Z,18.72
2018-10-06T16:50:48.683Z,18.76
2018-10-06T16:53:17.534Z,18.75
2018-10-06T16:55:46.651Z,18.61
2018-10-06T16:58:16.518Z,18.65
2018-10-06T17:00:45.839Z,18.58
2018-10-06T17:03:16.852Z,18.61
2018-10-06T17:05:47.561Z,18.54
2018-10-06T17:08:21.586Z,18.57
2018-10-06T17:10:51.619Z,18.56
2018-10-06T17:13:20.866Z,18.53
2018-10-06T17:15:52.160Z,18.59
2018-10-06T17:18:21.053Z,18.56
2018-10-06T17:20:50.645Z,18.55
2018-10-06T17:23:20.300Z,18.61
2018-10-06T17:25:49.408Z,18.67
2018-10-06T17:28:18.248Z,18.61
2018-10-06T17:30:48.628Z,18.61
2018-10-06T17:33:19.153Z,18.55
2018-10-06T17:35:49.759Z,18.56
2018-10-06T17:38:18.974Z,18.53
2018-10-06T17:40:48.331Z,18.55
2018-10-06T17:43:17.602Z,18.59
2018-10-06T17:45:51.357Z,18.57
2018-10-06T17:48:25.946Z,18.55
2018-10-06T17:51:00.223Z,18.61
2018-10-06T17:53:34.043Z,18.53
2018-10-06T17:56:08.141Z,18.54
2018-10-06T17:58:43.764Z,18.61
2018-10-06T18:01:18.351Z,18.59
2018-10-06T18:03:51.697Z,18.61
2018-10-06T18:06:23.391Z,18.48
2018-10-06T18:08:56.627Z,18.28
2018-10-06T18:11:31.438Z,18.23
2018-10-06T18:14:05.200Z,18.69
2018-10-06T18:16:39.587Z,18.62
2018-10-06T18:19:14.230Z,18.13
2018-10-06T18:21:49.210Z,17.99
2018-10-06T18:24:26.544Z,17.89
2018-10-06T18:27:00.820Z,17.66
2018-10-06T18:29:34.210Z,17.54
2018-10-06T18:32:05.539Z,17.37
2018-10-06T18:34:38.791Z,17.33
2018-10-06T18:37:09.739Z,17.26
2018-10-06T18:39:44.000Z,17.30
2018-10-06T18:42:14.239Z,17.38
2018-10-06T18:44:43.594Z,17.38
2018-10-06T18:47:13.242Z,17.33
2018-10-06T18:49:43.415Z,17.37
2018-10-06T18:52:14.079Z,17.36
2018-10-06T18:54:45.429Z,17.29
2018-10-06T18:57:14.940Z,17.25
2018-10-06T18:59:48.006Z,17.15
2018-10-06T19:02:21.127Z,17.04
2018-10-06T19:04:54.619Z,17.01
2018-10-06T19:07:27.340Z,16.79
2018-10-06T19:09:58.418Z,17.01
2018-10-06T19:12:28.744Z,16.67
2018-10-06T19:14:57.939Z,16.22
2018-10-06T19:17:26.774Z,15.95
2018-10-06T19:19:55.715Z,15.90
2018-10-06T19:22:24.654Z,15.85
2018-10-06T19:24:54.028Z,15.78
2018-10-06T19:27:24.276Z,15.81
2018-10-06T19:29:54.407Z,15.67
2018-10-06T19:32:23.862Z,15.71
2018-10-06T19:34:53.029Z,15.66
2018-10-06T19:37:22.019Z,15.68
2018-10-06T19:39:51.334Z,15.55
2018-10-06T19:42:20.503Z,15.52
2018-10-06T19:44:50.204Z,15.70
2018-10-06T19:47:19.689Z,15.50
2018-10-06T19:49:48.845Z,15.30
2018-10-06T19:52:17.798Z,15.24
2018-10-06T19:54:46.814Z,15.09
2018-10-06T19:57:16.342Z,15.08
2018-10-06T19:59:45.636Z,15.12
2018-10-06T20:02:14.550Z,15.30
2018-10-06T20:04:43.736Z,15.42
2018-10-06T20:07:12.681Z,15.45
2018-10-06T20:09:41.516Z,15.53
2018-10-06T20:12:11.061Z,15.58
2018-10-06T20:14:39.890Z,15.56
2018-10-06T20:17:08.688Z,15.55
2018-10-06T20:19:37.906Z,15.18
2018-10-06T20:22:10.275Z,15.04
2018-10-06T20:24:39.138Z,14.96
2018-10-06T20:27:08.209Z,14.83
2018-10-06T20:29:37.648Z,14.79
2018-10-06T20:32:07.206Z,14.76
2018-10-06T20:34:36.393Z,14.68
2018-10-06T20:37:05.660Z,14.56
2018-10-06T20:39:34.602Z,14.47
2018-10-06T20:42:03.465Z,14.46
2018-10-06T20:44:32.345Z,14.56
2018-10-06T20:47:01.454Z,14.63
2018-10-06T20:49:30.535Z,14.69
2018-10-06T20:51:59.369Z,14.73
2018-10-06T20:54:28.294Z,14.66
2018-10-06T20:56:57.184Z,14.77
2018-10-06T20:59:26.055Z,14.80
2018-10-06T21:01:55.720Z,14.90
2018-10-06T21:04:24.595Z,14.90
2018-10-06T21:06:53.399Z,14.90
2018-10-06T21:09:22.338Z,14.88
2018-10-06T21:11:51.166Z,14.85
2018-10-06T21:14:20.121Z,14.77
2018-10-06T21:16:49.361Z,14.70
2018-10-06T21:19:18.225Z,14.56
2018-10-06T21:21:47.033Z,14.50
2018-10-06T21:24:15.976Z,14.56
2018-10-06T21:26:44.829Z,14.57
2018-10-06T21:29:13.703Z,14.57
2018-10-06T21:31:42.838Z,14.56
2018-10-06T21:34:11.683Z,14.56
2018-10-06T21:36:40.572Z,14.56
2018-10-06T21:39:10.489Z,14.60
2018-10-06T21:41:39.368Z,14.61
2018-10-06T21:44:08.225Z,14.57
2018-10-06T21:46:37.374Z,14.64
2018-10-06T21:49:06.239Z,14.62
2018-10-06T21:51:35.128Z,14.48
2018-10-06T21:54:04.083Z,14.50
2018-10-06T21:56:32.875Z,14.48
2018-10-06T21:59:02.598Z,14.51
2018-10-06T22:01:31.601Z,14.46
2018-10-06T22:04:00.423Z,14.41
2018-10-06T22:06:29.627Z,14.30
2018-10-06T22:08:58.521Z,14.37
2018-10-06T22:11:27.396Z,14.36
2018-10-06T22:13:56.302Z,14.39
2018-10-06T22:16:25.701Z,14.34
2018-10-06T22:18:54.555Z,14.29
2018-10-06T22:21:23.461Z,14.20
2018-10-06T22:23:52.600Z,14.20
2018-10-06T22:26:21.483Z,14.11
2018-10-06T22:28:50.935Z,14.13
2018-10-06T22:31:20.058Z,13.94
2018-10-06T22:33:49.347Z,14.02
2018-10-06T22:36:18.251Z,14.02
2018-10-06T22:38:47.581Z,14.01
2018-10-06T22:41:16.390Z,14.03
2018-10-06T22:43:45.697Z,14.02
2018-10-06T22:46:14.791Z,13.95
2018-10-06T22:48:44.121Z,14.05
2018-10-06T22:51:12.973Z,13.99
2018-10-06T22:53:41.881Z,14.00
2018-10-06T22:56:10.750Z,13.92
2018-10-06T22:58:39.659Z,13.83
2018-10-06T23:01:08.805Z,13.88
2018-10-06T23:03:38.028Z,13.74
2018-10-06T23:06:08.028Z,13.77
2018-10-06T23:08:37.198Z,13.63
2018-10-06T23:11:06.549Z,13.71
2018-10-06T23:13:35.733Z,13.75
2018-10-06T23:16:05.326Z,13.65
2018-10-06T23:18:34.136Z,13.65
2018-10-06T23:21:03.893Z,13.74
2018-10-06T23:23:32.744Z,13.58
2018-10-06T23:26:01.586Z,13.62
2018-10-06T23:28:30.883Z,13.40
2018-10-06T23:31:00.316Z,13.29
2018-10-06T23:33:29.230Z,13.41
2018-10-06T23:35:58.188Z,13.63
2018-10-06T23:38:27.438Z,13.70
2018-10-06T23:40:56.346Z,13.74
2018-10-06T23:43:25.242Z,13.85
2018-10-06T23:45:54.375Z,13.64
2018-10-06T23:48:23.238Z,13.69
2018-10-06T23:50:52.079Z,13.70
2018-10-06T23:53:21.342Z,13.74
2018-10-06T23:55:50.144Z,13.65
2018-10-06T23:58:19.014Z,13.76
